sensor_id;sensor_type;location;lat;lon;timestamp;P1;durP1;ratioP1;P2;durP2;ratioP2
74344;SDS011;62776;50.518;6.732;2023-02-01T00:00:58;12.73;;;8.05;;
74344;SDS011;62776;50.518;6.732;2023-02-01T00:03:49;13.02;;;7.78;;
74344;SDS011;62776;50.518;6.732;2023-02-01T00:06:45;15.25;;;8.13;;
74344;SDS011;62776;50.518;6.732;2023-02-01T00:09:33;11.07;;;7.82;;
74344;SDS011;62776;50.518;6.732;2023-02-01T00:12:20;14.68;;;7.30;;
74344;SDS011;62776;50.518;6.732;2023-02-01T00:15:09;11.93;;;7.20;;
74344;SDS011;62776;50.518;6.732;2023-02-01T00:18:03;14.82;;;8.50;;
74344;SDS011;62776;50.518;6.732;2023-02-01T00:21:10;12.27;;;7.53;;
74344;SDS011;62776;50.518;6.732;2023-02-01T00:24:09;13.07;;;7.13;;
74344;SDS011;62776;50.518;6.732;2023-02-01T00:26:58;14.00;;;7.68;;
74344;SDS011;62776;50.518;6.732;2023-02-01T00:29:53;14.48;;;7.55;;
74344;SDS011;62776;50.518;6.732;2023-02-01T00:32:50;15.45;;;7.53;;
74344;SDS011;62776;50.518;6.732;2023-02-01T00:35:40;16.52;;;7.50;;
74344;SDS011;62776;50.518;6.732;2023-02-01T00:38:29;10.75;;;7.35;;
74344;SDS011;62776;50.518;6.732;2023-02-01T00:41:26;13.00;;;6.70;;
74344;SDS011;62776;50.518;6.732;2023-02-01T00:44:16;12.63;;;7.28;;
74344;SDS011;62776;50.518;6.732;2023-02-01T00:47:02;14.77;;;7.13;;
74344;SDS011;62776;50.518;6.732;2023-02-01T00:49:51;13.30;;;7.57;;
74344;SDS011;62776;50.518;6.732;2023-02-01T00:52:48;13.07;;;6.40;;
74344;SDS011;62776;50.518;6.732;2023-02-01T00:55:39;12.27;;;6.07;;
74344;SDS011;62776;50.518;6.732;2023-02-01T00:58:36;13.70;;;6.10;;
74344;SDS011;62776;50.518;6.732;2023-02-01T01:01:35;10.70;;;6.63;;
74344;SDS011;62776;50.518;6.732;2023-02-01T01:04:24;10.05;;;6.63;;
74344;SDS011;62776;50.518;6.732;2023-02-01T01:07:12;12.93;;;6.05;;
74344;SDS011;62776;50.518;6.732;2023-02-01T01:10:02;13.85;;;6.65;;
74344;SDS011;62776;50.518;6.732;2023-02-01T01:12:48;12.63;;;6.65;;
74344;SDS011;62776;50.518;6.732;2023-02-01T01:15:42;10.68;;;5.90;;
74344;SDS011;62776;50.518;6.732;2023-02-01T01:18:34;12.60;;;6.07;;
74344;SDS011;62776;50.518;6.732;2023-02-01T01:21:22;15.13;;;6.80;;
74344;SDS011;62776;50.518;6.732;2023-02-01T01:24:08;10.80;;;6.75;;
74344;SDS011;62776;50.518;6.732;2023-02-01T01:26:58;13.75;;;6.00;;
74344;SDS011;62776;50.518;6.732;2023-02-01T01:29:44;10.90;;;6.15;;
74344;SDS011;62776;50.518;6.732;2023-02-01T01:32:39;13.75;;;6.47;;
74344;SDS011;62776;50.518;6.732;2023-02-01T01:35:25;12.13;;;6.15;;
74344;SDS011;62776;50.518;6.732;2023-02-01T01:38:17;12.90;;;6.22;;
74344;SDS011;62776;50.518;6.732;2023-02-01T01:41:12;10.20;;;6.18;;
74344;SDS011;62776;50.518;6.732;2023-02-01T01:47:40;16.60;;;7.20;;
74344;SDS011;62776;50.518;6.732;2023-02-01T01:50:44;13.95;;;6.43;;
74344;SDS011;62776;50.518;6.732;2023-02-01T01:53:47;13.77;;;6.10;;
74344;SDS011;62776;50.518;6.732;2023-02-01T01:57:13;12.35;;;6.13;;
74344;SDS011;62776;50.518;6.732;2023-02-01T02:00:11;13.18;;;6.22;;
74344;SDS011;62776;50.518;6.732;2023-02-01T02:03:25;9.27;;;5.50;;
74344;SDS011;62776;50.518;6.732;2023-02-01T02:06:37;9.90;;;5.25;;
74344;SDS011;62776;50.518;6.732;2023-02-01T02:09:46;13.27;;;6.80;;
74344;SDS011;62776;50.518;6.732;2023-02-01T02:12:46;13.63;;;5.72;;
74344;SDS011;62776;50.518;6.732;2023-02-01T02:15:34;11.85;;;5.88;;
74344;SDS011;62776;50.518;6.732;2023-02-01T02:18:55;11.48;;;5.32;;
74344;SDS011;62776;50.518;6.732;2023-02-01T02:26:00;17.90;;;6.35;;
74344;SDS011;62776;50.518;6.732;2023-02-01T02:36:01;12.73;;;5.88;;
74344;SDS011;62776;50.518;6.732;2023-02-01T02:42:39;11.75;;;5.60;;
74344;SDS011;62776;50.518;6.732;2023-02-01T02:46:12;14.00;;;5.93;;
74344;SDS011;62776;50.518;6.732;2023-02-01T02:49:58;10.15;;;4.60;;
74344;SDS011;62776;50.518;6.732;2023-02-01T02:53:15;10.30;;;4.75;;
74344;SDS011;62776;50.518;6.732;2023-02-01T02:56:22;12.70;;;5.40;;
74344;SDS011;62776;50.518;6.732;2023-02-01T02:59:29;14.27;;;6.32;;
74344;SDS011;62776;50.518;6.732;2023-02-01T03:02:36;13.52;;;5.40;;
74344;SDS011;62776;50.518;6.732;2023-02-01T03:05:45;14.05;;;5.65;;
74344;SDS011;62776;50.518;6.732;2023-02-01T03:08:35;11.48;;;4.72;;
74344;SDS011;62776;50.518;6.732;2023-02-01T03:11:21;10.30;;;5.10;;
74344;SDS011;62776;50.518;6.732;2023-02-01T03:14:11;15.50;;;5.35;;
74344;SDS011;62776;50.518;6.732;2023-02-01T03:17:10;9.23;;;5.00;;
74344;SDS011;62776;50.518;6.732;2023-02-01T03:20:18;13.88;;;6.25;;
74344;SDS011;62776;50.518;6.732;2023-02-01T03:23:10;11.23;;;5.30;;
74344;SDS011;62776;50.518;6.732;2023-02-01T03:26:12;14.13;;;5.75;;
74344;SDS011;62776;50.518;6.732;2023-02-01T03:29:17;12.10;;;5.20;;
74344;SDS011;62776;50.518;6.732;2023-02-01T03:32:10;15.07;;;5.72;;
74344;SDS011;62776;50.518;6.732;2023-02-01T03:35:00;11.77;;;5.78;;
74344;SDS011;62776;50.518;6.732;2023-02-01T03:37:53;9.98;;;5.28;;
74344;SDS011;62776;50.518;6.732;2023-02-01T03:41:13;15.00;;;6.15;;
74344;SDS011;62776;50.518;6.732;2023-02-01T03:44:26;13.43;;;5.85;;
74344;SDS011;62776;50.518;6.732;2023-02-01T03:47:32;9.75;;;5.78;;
74344;SDS011;62776;50.518;6.732;2023-02-01T03:50:27;12.00;;;6.40;;
74344;SDS011;62776;50.518;6.732;2023-02-01T03:53:29;10.27;;;6.37;;
74344;SDS011;62776;50.518;6.732;2023-02-01T03:56:18;12.82;;;6.78;;
74344;SDS011;62776;50.518;6.732;2023-02-01T03:59:08;13.80;;;6.57;;
74344;SDS011;62776;50.518;6.732;2023-02-01T04:02:02;13.88;;;7.05;;
74344;SDS011;62776;50.518;6.732;2023-02-01T04:04:52;13.05;;;6.68;;
74344;SDS011;62776;50.518;6.732;2023-02-01T04:07:41;16.40;;;7.25;;
74344;SDS011;62776;50.518;6.732;2023-02-01T04:10:41;17.42;;;7.57;;
74344;SDS011;62776;50.518;6.732;2023-02-01T04:13:32;18.50;;;8.18;;
74344;SDS011;62776;50.518;6.732;2023-02-01T04:16:23;13.82;;;6.47;;
74344;SDS011;62776;50.518;6.732;2023-02-01T04:19:09;12.65;;;6.88;;
74344;SDS011;62776;50.518;6.732;2023-02-01T04:22:04;12.65;;;6.85;;
74344;SDS011;62776;50.518;6.732;2023-02-01T04:25:02;12.63;;;6.63;;
74344;SDS011;62776;50.518;6.732;2023-02-01T04:27:50;12.23;;;6.15;;
74344;SDS011;62776;50.518;6.732;2023-02-01T04:30:40;16.00;;;6.78;;
74344;SDS011;62776;50.518;6.732;2023-02-01T04:33:29;10.82;;;5.78;;
74344;SDS011;62776;50.518;6.732;2023-02-01T04:36:19;13.02;;;6.32;;
74344;SDS011;62776;50.518;6.732;2023-02-01T04:39:08;10.38;;;5.10;;
74344;SDS011;62776;50.518;6.732;2023-02-01T04:41:57;11.30;;;5.10;;
74344;SDS011;62776;50.518;6.732;2023-02-01T04:44:44;14.40;;;5.93;;
74344;SDS011;62776;50.518;6.732;2023-02-01T04:47:34;11.43;;;5.47;;
74344;SDS011;62776;50.518;6.732;2023-02-01T04:50:20;10.52;;;5.10;;
74344;SDS011;62776;50.518;6.732;2023-02-01T04:53:13;9.05;;;4.35;;
74344;SDS011;62776;50.518;6.732;2023-02-01T04:59:31;12.18;;;4.43;;
74344;SDS011;62776;50.518;6.732;2023-02-01T05:02:21;7.53;;;4.60;;
74344;SDS011;62776;50.518;6.732;2023-02-01T05:05:13;16.00;;;5.63;;
74344;SDS011;62776;50.518;6.732;2023-02-01T05:08:03;12.23;;;5.13;;
74344;SDS011;62776;50.518;6.732;2023-02-01T05:10:58;9.77;;;4.82;;
74344;SDS011;62776;50.518;6.732;2023-02-01T05:13:49;11.65;;;5.03;;
74344;SDS011;62776;50.518;6.732;2023-02-01T05:16:36;13.02;;;5.13;;
74344;SDS011;62776;50.518;6.732;2023-02-01T05:19:34;9.73;;;4.97;;
74344;SDS011;62776;50.518;6.732;2023-02-01T05:22:21;10.90;;;4.68;;
74344;SDS011;62776;50.518;6.732;2023-02-01T05:25:23;15.20;;;5.57;;
74344;SDS011;62776;50.518;6.732;2023-02-01T05:28:11;12.13;;;5.28;;
74344;SDS011;62776;50.518;6.732;2023-02-01T05:30:58;13.38;;;5.60;;
74344;SDS011;62776;50.518;6.732;2023-02-01T05:33:44;10.57;;;4.68;;
74344;SDS011;62776;50.518;6.732;2023-02-01T05:36:36;12.75;;;4.72;;
74344;SDS011;62776;50.518;6.732;2023-02-01T05:39:36;11.27;;;4.95;;
74344;SDS011;62776;50.518;6.732;2023-02-01T05:42:25;10.70;;;4.85;;
74344;SDS011;62776;50.518;6.732;2023-02-01T05:45:11;13.07;;;5.20;;
74344;SDS011;62776;50.518;6.732;2023-02-01T05:48:01;11.75;;;4.85;;
74344;SDS011;62776;50.518;6.732;2023-02-01T05:50:47;15.70;;;5.68;;
74344;SDS011;62776;50.518;6.732;2023-02-01T05:53:37;11.15;;;4.65;;
74344;SDS011;62776;50.518;6.732;2023-02-01T05:56:23;11.07;;;5.68;;
74344;SDS011;62776;50.518;6.732;2023-02-01T05:59:09;12.50;;;5.43;;
74344;SDS011;62776;50.518;6.732;2023-02-01T06:02:09;12.27;;;5.90;;
74344;SDS011;62776;50.518;6.732;2023-02-01T06:05:12;12.80;;;4.97;;
74344;SDS011;62776;50.518;6.732;2023-02-01T06:08:01;9.18;;;4.72;;
74344;SDS011;62776;50.518;6.732;2023-02-01T06:11:07;11.77;;;4.30;;
74344;SDS011;62776;50.518;6.732;2023-02-01T06:13:53;16.33;;;5.85;;
74344;SDS011;62776;50.518;6.732;2023-02-01T06:16:42;12.93;;;5.10;;
74344;SDS011;62776;50.518;6.732;2023-02-01T06:19:38;11.50;;;5.45;;
74344;SDS011;62776;50.518;6.732;2023-02-01T06:22:25;12.98;;;5.57;;
74344;SDS011;62776;50.518;6.732;2023-02-01T06:25:16;12.05;;;4.50;;
74344;SDS011;62776;50.518;6.732;2023-02-01T06:28:09;11.02;;;4.40;;
74344;SDS011;62776;50.518;6.732;2023-02-01T06:30:58;11.48;;;4.82;;
74344;SDS011;62776;50.518;6.732;2023-02-01T06:33:54;13.40;;;5.32;;
74344;SDS011;62776;50.518;6.732;2023-02-01T06:36:46;10.10;;;5.20;;
74344;SDS011;62776;50.518;6.732;2023-02-01T06:39:32;10.52;;;5.03;;
74344;SDS011;62776;50.518;6.732;2023-02-01T06:42:19;11.25;;;5.47;;
74344;SDS011;62776;50.518;6.732;2023-02-01T06:45:22;10.55;;;5.22;;
74344;SDS011;62776;50.518;6.732;2023-02-01T06:48:09;11.15;;;5.18;;
74344;SDS011;62776;50.518;6.732;2023-02-01T06:51:01;11.45;;;5.05;;
74344;SDS011;62776;50.518;6.732;2023-02-01T06:53:50;15.65;;;6.63;;
74344;SDS011;62776;50.518;6.732;2023-02-01T06:56:36;13.90;;;5.47;;
74344;SDS011;62776;50.518;6.732;2023-02-01T06:59:25;10.80;;;4.65;;
74344;SDS011;62776;50.518;6.732;2023-02-01T07:02:15;12.60;;;5.05;;
74344;SDS011;62776;50.518;6.732;2023-02-01T07:05:10;10.65;;;5.63;;
74344;SDS011;62776;50.518;6.732;2023-02-01T07:08:05;11.45;;;5.13;;
74344;SDS011;62776;50.518;6.732;2023-02-01T07:10:51;16.45;;;5.90;;
74344;SDS011;62776;50.518;6.732;2023-02-01T07:13:41;13.32;;;5.85;;
74344;SDS011;62776;50.518;6.732;2023-02-01T07:16:27;10.18;;;4.97;;
74344;SDS011;62776;50.518;6.732;2023-02-01T07:19:20;13.10;;;5.68;;
74344;SDS011;62776;50.518;6.732;2023-02-01T07:22:06;10.38;;;5.28;;
74344;SDS011;62776;50.518;6.732;2023-02-01T07:24:53;12.68;;;4.88;;
74344;SDS011;62776;50.518;6.732;2023-02-01T07:27:39;16.10;;;5.95;;
74344;SDS011;62776;50.518;6.732;2023-02-01T07:30:25;12.70;;;5.13;;
74344;SDS011;62776;50.518;6.732;2023-02-01T07:33:14;13.95;;;5.05;;
74344;SDS011;62776;50.518;6.732;2023-02-01T07:36:06;14.52;;;5.78;;
74344;SDS011;62776;50.518;6.732;2023-02-01T07:39:02;9.38;;;4.43;;
74344;SDS011;62776;50.518;6.732;2023-02-01T07:41:50;12.43;;;5.13;;
74344;SDS011;62776;50.518;6.732;2023-02-01T07:44:52;8.32;;;5.13;;
74344;SDS011;62776;50.518;6.732;2023-02-01T07:47:48;11.75;;;4.47;;
74344;SDS011;62776;50.518;6.732;2023-02-01T07:50:37;12.95;;;5.32;;
74344;SDS011;62776;50.518;6.732;2023-02-01T07:53:27;14.30;;;5.45;;
74344;SDS011;62776;50.518;6.732;2023-02-01T07:56:18;9.00;;;4.05;;
74344;SDS011;62776;50.518;6.732;2023-02-01T07:59:13;7.72;;;4.47;;
74344;SDS011;62776;50.518;6.732;2023-02-01T08:02:01;14.15;;;5.00;;
74344;SDS011;62776;50.518;6.732;2023-02-01T08:05:00;10.25;;;5.05;;
74344;SDS011;62776;50.518;6.732;2023-02-01T08:07:49;13.07;;;5.43;;
74344;SDS011;62776;50.518;6.732;2023-02-01T08:10:45;15.40;;;5.05;;
74344;SDS011;62776;50.518;6.732;2023-02-01T08:13:34;9.93;;;4.65;;
74344;SDS011;62776;50.518;6.732;2023-02-01T08:16:26;10.82;;;4.57;;
74344;SDS011;62776;50.518;6.732;2023-02-01T08:19:12;10.70;;;5.03;;
74344;SDS011;62776;50.518;6.732;2023-02-01T08:22:02;11.57;;;5.38;;
74344;SDS011;62776;50.518;6.732;2023-02-01T08:24:54;8.35;;;4.07;;
74344;SDS011;62776;50.518;6.732;2023-02-01T08:27:46;12.80;;;4.80;;
74344;SDS011;62776;50.518;6.732;2023-02-01T08:34:11;12.77;;;5.15;;
74344;SDS011;62776;50.518;6.732;2023-02-01T08:37:03;11.27;;;4.63;;
74344;SDS011;62776;50.518;6.732;2023-02-01T08:40:01;10.00;;;4.35;;
74344;SDS011;62776;50.518;6.732;2023-02-01T08:42:53;14.05;;;4.32;;
74344;SDS011;62776;50.518;6.732;2023-02-01T08:45:40;8.93;;;4.43;;
74344;SDS011;62776;50.518;6.732;2023-02-01T08:48:30;12.93;;;4.32;;
74344;SDS011;62776;50.518;6.732;2023-02-01T08:51:18;12.65;;;4.15;;
74344;SDS011;62776;50.518;6.732;2023-02-01T08:54:11;10.65;;;4.22;;
74344;SDS011;62776;50.518;6.732;2023-02-01T08:57:03;11.38;;;5.05;;
74344;SDS011;62776;50.518;6.732;2023-02-01T08:59:58;10.50;;;4.60;;
74344;SDS011;62776;50.518;6.732;2023-02-01T09:02:55;10.60;;;4.20;;
74344;SDS011;62776;50.518;6.732;2023-02-01T09:05:44;9.30;;;4.20;;
74344;SDS011;62776;50.518;6.732;2023-02-01T09:08:31;17.00;;;5.30;;
74344;SDS011;62776;50.518;6.732;2023-02-01T09:11:26;10.45;;;4.15;;
74344;SDS011;62776;50.518;6.732;2023-02-01T09:14:14;10.90;;;4.07;;
74344;SDS011;62776;50.518;6.732;2023-02-01T09:17:13;11.23;;;4.80;;
74344;SDS011;62776;50.518;6.732;2023-02-01T09:20:08;11.63;;;4.45;;
74344;SDS011;62776;50.518;6.732;2023-02-01T09:22:58;9.80;;;4.43;;
74344;SDS011;62776;50.518;6.732;2023-02-01T09:25:48;17.83;;;5.50;;
74344;SDS011;62776;50.518;6.732;2023-02-01T09:28:36;12.60;;;4.72;;
74344;SDS011;62776;50.518;6.732;2023-02-01T09:31:31;8.20;;;3.97;;
74344;SDS011;62776;50.518;6.732;2023-02-01T09:34:25;8.35;;;4.80;;
74344;SDS011;62776;50.518;6.732;2023-02-01T09:37:14;10.65;;;4.55;;
74344;SDS011;62776;50.518;6.732;2023-02-01T09:40:31;13.68;;;4.90;;
74344;SDS011;62776;50.518;6.732;2023-02-01T09:46:42;16.00;;;4.72;;
74344;SDS011;62776;50.518;6.732;2023-02-01T09:49:36;9.15;;;4.55;;
74344;SDS011;62776;50.518;6.732;2023-02-01T09:52:35;13.27;;;5.50;;
74344;SDS011;62776;50.518;6.732;2023-02-01T09:55:30;9.52;;;4.75;;
74344;SDS011;62776;50.518;6.732;2023-02-01T09:58:35;8.90;;;4.53;;
74344;SDS011;62776;50.518;6.732;2023-02-01T10:01:26;14.88;;;4.93;;
74344;SDS011;62776;50.518;6.732;2023-02-01T10:04:17;14.63;;;5.30;;
74344;SDS011;62776;50.518;6.732;2023-02-01T10:07:10;8.27;;;3.63;;
74344;SDS011;62776;50.518;6.732;2023-02-01T10:10:34;7.82;;;4.00;;
74344;SDS011;62776;50.518;6.732;2023-02-01T10:26:33;11.40;;;5.00;;
74344;SDS011;62776;50.518;6.732;2023-02-01T10:29:31;9.65;;;4.10;;
74344;SDS011;62776;50.518;6.732;2023-02-01T10:32:29;7.32;;;4.15;;
74344;SDS011;62776;50.518;6.732;2023-02-01T10:38:44;11.70;;;4.22;;
74344;SDS011;62776;50.518;6.732;2023-02-01T10:41:37;9.07;;;3.97;;
74344;SDS011;62776;50.518;6.732;2023-02-01T10:44:28;14.95;;;4.22;;
74344;SDS011;62776;50.518;6.732;2023-02-01T10:47:35;10.25;;;4.85;;
74344;SDS011;62776;50.518;6.732;2023-02-01T10:56:30;8.85;;;4.05;;
74344;SDS011;62776;50.518;6.732;2023-02-01T10:59:38;10.43;;;4.93;;
74344;SDS011;62776;50.518;6.732;2023-02-01T11:02:30;10.30;;;3.90;;
74344;SDS011;62776;50.518;6.732;2023-02-01T11:05:22;10.20;;;4.22;;
74344;SDS011;62776;50.518;6.732;2023-02-01T11:08:14;10.55;;;4.63;;
74344;SDS011;62776;50.518;6.732;2023-02-01T11:11:06;8.10;;;4.32;;
74344;SDS011;62776;50.518;6.732;2023-02-01T11:13:57;10.80;;;4.65;;
74344;SDS011;62776;50.518;6.732;2023-02-01T11:17:12;11.30;;;3.67;;
74344;SDS011;62776;50.518;6.732;2023-02-01T11:20:17;8.60;;;4.10;;
74344;SDS011;62776;50.518;6.732;2023-02-01T11:23:15;10.90;;;4.15;;
74344;SDS011;62776;50.518;6.732;2023-02-01T11:26:10;10.05;;;4.05;;
74344;SDS011;62776;50.518;6.732;2023-02-01T11:29:03;9.15;;;4.60;;
74344;SDS011;62776;50.518;6.732;2023-02-01T11:31:59;10.98;;;4.40;;
74344;SDS011;62776;50.518;6.732;2023-02-01T11:34:57;9.95;;;4.07;;
74344;SDS011;62776;50.518;6.732;2023-02-01T11:37:58;7.38;;;3.25;;
74344;SDS011;62776;50.518;6.732;2023-02-01T11:40:48;10.65;;;4.80;;
74344;SDS011;62776;50.518;6.732;2023-02-01T11:44:41;7.25;;;2.85;;
74344;SDS011;62776;50.518;6.732;2023-02-01T11:47:21;7.38;;;3.35;;
74344;SDS011;62776;50.518;6.732;2023-02-01T12:00:36;6.30;;;2.88;;
74344;SDS011;62776;50.518;6.732;2023-02-01T12:13:14;11.30;;;3.75;;
74344;SDS011;62776;50.518;6.732;2023-02-01T12:29:19;7.05;;;3.47;;
74344;SDS011;62776;50.518;6.732;2023-02-01T12:44:29;8.75;;;3.90;;
74344;SDS011;62776;50.518;6.732;2023-02-01T12:47:54;9.75;;;4.68;;
74344;SDS011;62776;50.518;6.732;2023-02-01T12:51:18;7.57;;;3.17;;
74344;SDS011;62776;50.518;6.732;2023-02-01T12:53:59;8.73;;;4.20;;
74344;SDS011;62776;50.518;6.732;2023-02-01T12:57:17;7.28;;;3.00;;
74344;SDS011;62776;50.518;6.732;2023-02-01T13:10:15;7.55;;;3.10;;
74344;SDS011;62776;50.518;6.732;2023-02-01T13:16:15;6.82;;;3.10;;
74344;SDS011;62776;50.518;6.732;2023-02-01T13:22:39;6.85;;;2.40;;
74344;SDS011;62776;50.518;6.732;2023-02-01T13:25:48;6.15;;;2.38;;
74344;SDS011;62776;50.518;6.732;2023-02-01T13:28:45;5.93;;;2.42;;
74344;SDS011;62776;50.518;6.732;2023-02-01T13:35:13;7.63;;;2.70;;
74344;SDS011;62776;50.518;6.732;2023-02-01T13:41:52;7.05;;;3.03;;
74344;SDS011;62776;50.518;6.732;2023-02-01T13:44:51;9.55;;;3.58;;
74344;SDS011;62776;50.518;6.732;2023-02-01T13:47:46;6.40;;;2.58;;
74344;SDS011;62776;50.518;6.732;2023-02-01T13:50:43;7.70;;;2.83;;
74344;SDS011;62776;50.518;6.732;2023-02-01T13:53:47;7.13;;;2.70;;
74344;SDS011;62776;50.518;6.732;2023-02-01T13:56:41;6.78;;;3.22;;
74344;SDS011;62776;50.518;6.732;2023-02-01T14:08:21;7.95;;;3.45;;
74344;SDS011;62776;50.518;6.732;2023-02-01T14:11:34;6.85;;;2.63;;
74344;SDS011;62776;50.518;6.732;2023-02-01T14:23:29;8.48;;;3.17;;
74344;SDS011;62776;50.518;6.732;2023-02-01T14:29:56;7.13;;;2.90;;
74344;SDS011;62776;50.518;6.732;2023-02-01T14:32:49;6.22;;;2.97;;
74344;SDS011;62776;50.518;6.732;2023-02-01T14:35:52;9.35;;;3.35;;
74344;SDS011;62776;50.518;6.732;2023-02-01T14:38:52;5.10;;;2.38;;
74344;SDS011;62776;50.518;6.732;2023-02-01T14:42:00;6.55;;;3.30;;
74344;SDS011;62776;50.518;6.732;2023-02-01T14:51:08;7.10;;;2.30;;
74344;SDS011;62776;50.518;6.732;2023-02-01T14:53:59;6.63;;;3.25;;
74344;SDS011;62776;50.518;6.732;2023-02-01T14:56:49;7.70;;;3.03;;
74344;SDS011;62776;50.518;6.732;2023-02-01T15:06:24;7.55;;;2.97;;
74344;SDS011;62776;50.518;6.732;2023-02-01T15:09:28;6.68;;;2.80;;
74344;SDS011;62776;50.518;6.732;2023-02-01T15:12:18;7.75;;;3.25;;
74344;SDS011;62776;50.518;6.732;2023-02-01T15:15:19;6.93;;;2.80;;
74344;SDS011;62776;50.518;6.732;2023-02-01T15:18:14;7.35;;;2.72;;
74344;SDS011;62776;50.518;6.732;2023-02-01T15:21:14;4.93;;;2.40;;
74344;SDS011;62776;50.518;6.732;2023-02-01T15:24:14;7.43;;;3.33;;
74344;SDS011;62776;50.518;6.732;2023-02-01T15:27:08;6.93;;;2.97;;
74344;SDS011;62776;50.518;6.732;2023-02-01T15:30:12;5.60;;;2.53;;
74344;SDS011;62776;50.518;6.732;2023-02-01T15:36:16;6.72;;;2.55;;
74344;SDS011;62776;50.518;6.732;2023-02-01T15:39:13;6.70;;;2.67;;
74344;SDS011;62776;50.518;6.732;2023-02-01T15:42:11;7.45;;;3.22;;
74344;SDS011;62776;50.518;6.732;2023-02-01T15:45:04;7.85;;;3.22;;
74344;SDS011;62776;50.518;6.732;2023-02-01T15:48:04;11.98;;;4.00;;
74344;SDS011;62776;50.518;6.732;2023-02-01T15:51:10;5.70;;;2.75;;
74344;SDS011;62776;50.518;6.732;2023-02-01T15:54:19;9.77;;;3.40;;
74344;SDS011;62776;50.518;6.732;2023-02-01T15:57:19;9.85;;;3.65;;
74344;SDS011;62776;50.518;6.732;2023-02-01T16:00:27;8.80;;;3.97;;
74344;SDS011;62776;50.518;6.732;2023-02-01T16:03:42;8.70;;;2.95;;
74344;SDS011;62776;50.518;6.732;2023-02-01T16:06:31;7.82;;;3.50;;
74344;SDS011;62776;50.518;6.732;2023-02-01T16:12:29;9.45;;;3.47;;
74344;SDS011;62776;50.518;6.732;2023-02-01T16:15:28;8.48;;;3.17;;
74344;SDS011;62776;50.518;6.732;2023-02-01T16:18:23;8.27;;;3.35;;
74344;SDS011;62776;50.518;6.732;2023-02-01T16:21:12;9.75;;;3.78;;
74344;SDS011;62776;50.518;6.732;2023-02-01T16:24:04;7.78;;;3.60;;
74344;SDS011;62776;50.518;6.732;2023-02-01T16:27:14;9.15;;;3.80;;
74344;SDS011;62776;50.518;6.732;2023-02-01T16:30:15;6.88;;;3.42;;
74344;SDS011;62776;50.518;6.732;2023-02-01T16:33:09;7.07;;;3.25;;
74344;SDS011;62776;50.518;6.732;2023-02-01T16:36:07;8.65;;;3.63;;
74344;SDS011;62776;50.518;6.732;2023-02-01T16:39:02;9.75;;;3.38;;
74344;SDS011;62776;50.518;6.732;2023-02-01T16:42:04;11.77;;;3.75;;
74344;SDS011;62776;50.518;6.732;2023-02-01T16:45:24;6.40;;;3.63;;
74344;SDS011;62776;50.518;6.732;2023-02-01T16:48:40;10.48;;;3.40;;
74344;SDS011;62776;50.518;6.732;2023-02-01T16:51:33;9.48;;;4.10;;
74344;SDS011;62776;50.518;6.732;2023-02-01T16:54:20;10.02;;;3.92;;
74344;SDS011;62776;50.518;6.732;2023-02-01T16:57:17;7.80;;;3.65;;
74344;SDS011;62776;50.518;6.732;2023-02-01T17:06:12;7.95;;;3.50;;
74344;SDS011;62776;50.518;6.732;2023-02-01T17:09:29;9.63;;;3.90;;
74344;SDS011;62776;50.518;6.732;2023-02-01T17:18:59;10.73;;;4.28;;
74344;SDS011;62776;50.518;6.732;2023-02-01T17:22:22;12.85;;;5.40;;
74344;SDS011;62776;50.518;6.732;2023-02-01T17:25:37;12.13;;;4.72;;
74344;SDS011;62776;50.518;6.732;2023-02-01T17:28:38;7.20;;;4.07;;
74344;SDS011;62776;50.518;6.732;2023-02-01T17:31:39;7.72;;;4.20;;
74344;SDS011;62776;50.518;6.732;2023-02-01T17:34:57;8.68;;;4.15;;
74344;SDS011;62776;50.518;6.732;2023-02-01T17:37:47;8.32;;;3.83;;
74344;SDS011;62776;50.518;6.732;2023-02-01T17:40:57;9.57;;;4.35;;
74344;SDS011;62776;50.518;6.732;2023-02-01T17:44:20;6.27;;;3.90;;
74344;SDS011;62776;50.518;6.732;2023-02-01T17:47:12;6.18;;;3.50;;
74344;SDS011;62776;50.518;6.732;2023-02-01T17:49:59;8.38;;;3.78;;
74344;SDS011;62776;50.518;6.732;2023-02-01T17:56:23;6.40;;;3.90;;
74344;SDS011;62776;50.518;6.732;2023-02-01T17:59:19;4.95;;;3.35;;
74344;SDS011;62776;50.518;6.732;2023-02-01T18:02:21;5.90;;;2.92;;
74344;SDS011;62776;50.518;6.732;2023-02-01T18:09:01;5.38;;;3.47;;
74344;SDS011;62776;50.518;6.732;2023-02-01T18:11:56;6.38;;;3.15;;
74344;SDS011;62776;50.518;6.732;2023-02-01T18:15:08;4.07;;;2.58;;
74344;SDS011;62776;50.518;6.732;2023-02-01T18:21:01;4.15;;;2.38;;
74344;SDS011;62776;50.518;6.732;2023-02-01T18:24:26;3.35;;;2.08;;
74344;SDS011;62776;50.518;6.732;2023-02-01T18:27:23;4.32;;;2.70;;
74344;SDS011;62776;50.518;6.732;2023-02-01T18:30:14;4.78;;;3.45;;
74344;SDS011;62776;50.518;6.732;2023-02-01T18:33:04;5.25;;;2.90;;
74344;SDS011;62776;50.518;6.732;2023-02-01T18:36:02;6.68;;;3.22;;
74344;SDS011;62776;50.518;6.732;2023-02-01T18:39:16;4.05;;;2.60;;
74344;SDS011;62776;50.518;6.732;2023-02-01T18:42:08;5.22;;;3.10;;
74344;SDS011;62776;50.518;6.732;2023-02-01T18:44:55;3.97;;;2.50;;
74344;SDS011;62776;50.518;6.732;2023-02-01T18:48:04;4.65;;;3.10;;
74344;SDS011;62776;50.518;6.732;2023-02-01T18:50:55;4.60;;;2.75;;
74344;SDS011;62776;50.518;6.732;2023-02-01T18:53:47;2.53;;;2.33;;
74344;SDS011;62776;50.518;6.732;2023-02-01T18:56:45;7.15;;;2.95;;
74344;SDS011;62776;50.518;6.732;2023-02-01T19:00:04;4.22;;;3.05;;
74344;SDS011;62776;50.518;6.732;2023-02-01T19:02:53;6.68;;;3.20;;
74344;SDS011;62776;50.518;6.732;2023-02-01T19:05:39;4.40;;;2.78;;
74344;SDS011;62776;50.518;6.732;2023-02-01T19:08:49;3.75;;;2.70;;
74344;SDS011;62776;50.518;6.732;2023-02-01T19:11:47;4.85;;;2.70;;
74344;SDS011;62776;50.518;6.732;2023-02-01T19:15:00;4.10;;;3.38;;
74344;SDS011;62776;50.518;6.732;2023-02-01T19:18:03;7.60;;;3.50;;
74344;SDS011;62776;50.518;6.732;2023-02-01T19:21:08;7.78;;;3.45;;
74344;SDS011;62776;50.518;6.732;2023-02-01T19:23:59;6.90;;;3.65;;
74344;SDS011;62776;50.518;6.732;2023-02-01T19:26:55;9.13;;;3.63;;
74344;SDS011;62776;50.518;6.732;2023-02-01T19:29:53;8.27;;;4.38;;
74344;SDS011;62776;50.518;6.732;2023-02-01T19:36:06;8.15;;;4.55;;
74344;SDS011;62776;50.518;6.732;2023-02-01T19:39:00;8.07;;;4.25;;
74344;SDS011;62776;50.518;6.732;2023-02-01T19:42:04;9.40;;;4.20;;
74344;SDS011;62776;50.518;6.732;2023-02-01T19:45:02;10.82;;;4.72;;
74344;SDS011;62776;50.518;6.732;2023-02-01T19:47:59;7.68;;;3.92;;
74344;SDS011;62776;50.518;6.732;2023-02-01T19:54:19;10.57;;;4.47;;
74344;SDS011;62776;50.518;6.732;2023-02-01T19:57:52;11.85;;;4.60;;
74344;SDS011;62776;50.518;6.732;2023-02-01T20:00:43;8.43;;;4.43;;
74344;SDS011;62776;50.518;6.732;2023-02-01T20:03:34;10.82;;;4.40;;
74344;SDS011;62776;50.518;6.732;2023-02-01T20:06:24;9.23;;;4.45;;
74344;SDS011;62776;50.518;6.732;2023-02-01T20:12:43;9.65;;;3.63;;
74344;SDS011;62776;50.518;6.732;2023-02-01T20:15:45;9.50;;;4.10;;
74344;SDS011;62776;50.518;6.732;2023-02-01T20:18:32;7.75;;;3.30;;
74344;SDS011;62776;50.518;6.732;2023-02-01T20:21:21;8.07;;;4.07;;
74344;SDS011;62776;50.518;6.732;2023-02-01T20:24:37;7.35;;;4.00;;
74344;SDS011;62776;50.518;6.732;2023-02-01T20:27:26;7.75;;;3.95;;
74344;SDS011;62776;50.518;6.732;2023-02-01T20:30:24;7.72;;;4.80;;
74344;SDS011;62776;50.518;6.732;2023-02-01T20:33:34;12.88;;;5.10;;
74344;SDS011;62776;50.518;6.732;2023-02-01T20:36:24;10.85;;;4.53;;
74344;SDS011;62776;50.518;6.732;2023-02-01T20:39:15;9.02;;;4.18;;
74344;SDS011;62776;50.518;6.732;2023-02-01T20:48:28;8.18;;;4.03;;
74344;SDS011;62776;50.518;6.732;2023-02-01T20:51:29;7.05;;;3.20;;
74344;SDS011;62776;50.518;6.732;2023-02-01T20:54:28;10.18;;;4.68;;